createdAt,value
2018-03-21T00:01:58.868Z,3.75
2018-03-21T00:04:25.509Z,3.05
2018-03-21T00:06:53.160Z,4.03
2018-03-21T00:09:20.682Z,3.65
2018-03-21T00:11:47.445Z,3.62
2018-03-21T00:14:14.066Z,3.72
2018-03-21T00:16:40.599Z,3.60
2018-03-21T00:19:07.280Z,4.03
2018-03-21T00:21:35.921Z,3.70
2018-03-21T00:24:02.619Z,3.45
2018-03-21T00:26:29.215Z,3.47
2018-03-21T00:28:55.771Z,4.32
2018-03-21T00:31:22.440Z,3.10
2018-03-21T00:33:59.461Z,3.42
2018-03-21T00:36:39.923Z,3.42
2018-03-21T00:39:14.399Z,3.87
2018-03-21T00:41:43.243Z,3.45
2018-03-21T00:44:10.988Z,4.10
2018-03-21T00:46:45.625Z,4.00
2018-03-21T00:49:12.179Z,3.42
2018-03-21T00:51:47.192Z,3.95
2018-03-21T00:54:13.744Z,3.58
2018-03-21T00:56:40.258Z,3.70
2018-03-21T00:59:06.700Z,3.47
2018-03-21T01:01:33.193Z,3.45
2018-03-21T01:03:59.581Z,3.70
2018-03-21T01:06:29.899Z,3.80
2018-03-21T01:09:05.590Z,3.65
2018-03-21T01:11:32.066Z,4.10
2018-03-21T01:13:58.790Z,4.37
2018-03-21T01:16:25.136Z,4.37
2018-03-21T01:18:51.518Z,3.15
2018-03-21T01:21:17.864Z,3.65
2018-03-21T01:23:45.364Z,3.47
2018-03-21T01:26:11.902Z,3.83
2018-03-21T01:28:42.167Z,4.37
2018-03-21T01:31:10.535Z,4.10
2018-03-21T01:33:36.981Z,4.65
2018-03-21T01:36:17.400Z,4.40
2018-03-21T01:38:44.916Z,3.92
2018-03-21T01:41:11.307Z,4.15
2018-03-21T01:43:49.142Z,4.65
2018-03-21T01:46:25.228Z,4.55
2018-03-21T01:48:52.709Z,3.85
2018-03-21T01:51:19.514Z,3.83
2018-03-21T01:54:02.948Z,4.37
2018-03-21T01:56:29.835Z,4.20
2018-03-21T01:58:56.464Z,3.28
2018-03-21T02:01:23.206Z,3.37
2018-03-21T02:03:59.838Z,4.50
2018-03-21T02:06:28.416Z,3.92
2018-03-21T02:08:59.810Z,3.58
2018-03-21T02:11:33.318Z,3.62
2018-03-21T02:13:59.917Z,4.10
2018-03-21T02:16:26.682Z,3.33
2018-03-21T02:18:53.423Z,3.45
2018-03-21T02:21:27.666Z,3.45
2018-03-21T02:23:54.552Z,4.50
2018-03-21T02:26:22.059Z,3.75
2018-03-21T02:29:02.111Z,3.78
2018-03-21T02:31:28.775Z,4.12
2018-03-21T02:33:55.696Z,3.53
2018-03-21T02:36:22.289Z,3.20
2018-03-21T02:38:50.729Z,3.55
2018-03-21T02:41:17.649Z,3.83
2018-03-21T02:43:45.337Z,3.65
2018-03-21T02:46:12.516Z,3.70
2018-03-21T02:48:39.116Z,3.40
2018-03-21T02:51:05.818Z,4.20
2018-03-21T02:53:32.344Z,4.30
2018-03-21T02:55:58.908Z,3.50
2018-03-21T02:58:26.530Z,3.47
2018-03-21T03:00:53.236Z,3.20
2018-03-21T03:03:21.493Z,3.53
2018-03-21T03:05:48.272Z,3.55
2018-03-21T03:08:14.860Z,3.80
2018-03-21T03:10:41.569Z,3.60
2018-03-21T03:13:08.325Z,3.37
2018-03-21T03:15:38.625Z,4.65
2018-03-21T03:18:05.328Z,4.20
2018-03-21T03:20:31.860Z,3.42
2018-03-21T03:22:58.324Z,3.70
2018-03-21T03:25:25.427Z,3.60
2018-03-21T03:27:52.989Z,3.47
2018-03-21T03:30:19.679Z,4.60
2018-03-21T03:32:46.313Z,3.78
2018-03-21T03:35:12.798Z,4.15
2018-03-21T03:37:39.435Z,4.65
2018-03-21T03:40:06.420Z,4.05
2018-03-21T03:42:33.278Z,4.62
2018-03-21T03:44:59.897Z,5.35
2018-03-21T03:47:27.706Z,4.90
2018-03-21T03:49:54.346Z,4.97
2018-03-21T03:52:21.417Z,5.70
2018-03-21T03:54:48.804Z,4.85
2018-03-21T03:57:15.490Z,5.30
2018-03-21T03:59:43.014Z,5.12
2018-03-21T04:02:09.641Z,5.90
2018-03-21T04:04:36.419Z,6.32
2018-03-21T04:07:03.061Z,6.93
2018-03-21T04:09:29.504Z,5.78
2018-03-21T04:11:55.928Z,6.20
2018-03-21T04:14:22.390Z,6.68
2018-03-21T04:16:49.565Z,6.00
2018-03-21T04:19:17.956Z,6.00
2018-03-21T04:21:44.302Z,6.10
2018-03-21T04:24:10.727Z,6.20
2018-03-21T04:26:37.150Z,6.68
2018-03-21T04:29:04.385Z,6.85
2018-03-21T04:31:33.790Z,5.85
2018-03-21T04:34:00.422Z,6.80
2018-03-21T04:36:26.923Z,7.90
2018-03-21T04:38:53.500Z,7.25
2018-03-21T04:41:19.951Z,7.72
2018-03-21T04:43:47.557Z,7.55
2018-03-21T04:46:13.949Z,8.20
2018-03-21T04:48:42.901Z,7.57
2018-03-21T04:51:09.627Z,7.70
2018-03-21T04:53:36.107Z,8.02
2018-03-21T04:56:02.553Z,8.55
2018-03-21T04:58:29.175Z,7.45
2018-03-21T05:00:57.339Z,7.60
2018-03-21T05:03:24.970Z,8.15
2018-03-21T05:05:52.753Z,7.43
2018-03-21T05:08:19.405Z,8.57
2018-03-21T05:10:45.881Z,8.57
2018-03-21T05:13:12.336Z,8.50
2018-03-21T05:15:38.928Z,8.38
2018-03-21T05:18:11.617Z,9.15
2018-03-21T05:20:38.744Z,10.05
2018-03-21T05:23:08.636Z,11.80
2018-03-21T05:25:36.257Z,11.07
2018-03-21T05:28:02.668Z,11.27
2018-03-21T05:33:13.134Z,13.40
2018-03-21T05:35:40.614Z,12.00
2018-03-21T05:38:07.123Z,13.55
2018-03-21T05:40:33.675Z,14.20
2018-03-21T05:43:00.211Z,15.05
2018-03-21T05:45:26.798Z,15.20
2018-03-21T05:47:53.332Z,15.13
2018-03-21T05:50:19.814Z,18.80
2018-03-21T05:52:46.286Z,20.00
2018-03-21T05:55:12.752Z,19.35
2018-03-21T05:57:45.622Z,19.65
2018-03-21T06:00:14.531Z,19.25
2018-03-21T06:02:44.355Z,19.83
2018-03-21T06:05:12.899Z,21.55
2018-03-21T06:07:42.078Z,22.62
2018-03-21T06:10:09.474Z,23.17
2018-03-21T06:12:38.195Z,22.52
2018-03-21T06:15:05.834Z,21.50
2018-03-21T06:17:52.505Z,21.15
2018-03-21T06:20:27.070Z,22.10
2018-03-21T06:22:53.866Z,22.50
2018-03-21T06:25:20.570Z,23.17
2018-03-21T06:27:47.304Z,24.02
2018-03-21T06:30:14.171Z,22.87
2018-03-21T06:32:40.870Z,23.83
2018-03-21T06:35:07.379Z,20.73
2018-03-21T06:37:33.810Z,21.95
2018-03-21T06:40:01.915Z,22.65
2018-03-21T06:42:28.408Z,22.52
2018-03-21T06:44:54.790Z,21.08
2018-03-21T06:47:21.209Z,22.20
2018-03-21T06:49:47.592Z,21.70
2018-03-21T06:52:13.966Z,22.62
2018-03-21T06:54:40.301Z,22.30
2018-03-21T06:57:06.665Z,20.73
2018-03-21T06:59:33.053Z,21.02
2018-03-21T07:02:00.173Z,19.30
2018-03-21T07:04:26.565Z,16.65
2018-03-21T07:06:54.007Z,18.05
2018-03-21T07:09:21.220Z,17.90
2018-03-21T07:11:47.619Z,17.80
2018-03-21T07:14:26.921Z,18.45
2018-03-21T07:16:53.364Z,16.37
2018-03-21T07:19:19.857Z,20.25
2018-03-21T07:21:46.362Z,17.20
2018-03-21T07:24:12.788Z,16.60
2018-03-21T07:26:39.206Z,15.82
2018-03-21T07:29:06.307Z,17.50
2018-03-21T07:31:32.648Z,17.58
2018-03-21T07:33:59.009Z,15.93
2018-03-21T07:36:27.569Z,17.20
2018-03-21T07:38:53.961Z,17.55
2018-03-21T07:41:20.350Z,17.50
2018-03-21T07:43:46.759Z,18.30
2018-03-21T07:46:13.868Z,17.60
2018-03-21T07:48:40.302Z,18.05
2018-03-21T07:51:07.393Z,16.75
2018-03-21T07:53:33.754Z,26.92
2018-03-21T07:56:00.109Z,27.17
2018-03-21T07:58:26.466Z,31.17
2018-03-21T08:00:52.950Z,29.63
2018-03-21T08:03:19.341Z,32.22
2018-03-21T08:05:46.432Z,31.35
2018-03-21T08:08:12.880Z,30.95
2018-03-21T08:10:39.398Z,32.45
2018-03-21T08:13:05.844Z,29.52
2018-03-21T08:15:36.963Z,24.20
2018-03-21T08:18:03.550Z,24.00
2018-03-21T08:20:30.675Z,21.92
2018-03-21T08:22:57.746Z,22.90
2018-03-21T08:25:24.882Z,25.35
2018-03-21T08:27:51.357Z,26.55
2018-03-21T08:30:22.536Z,23.77
2018-03-21T08:32:48.991Z,14.63
2018-03-21T08:35:15.346Z,16.85
2018-03-21T08:37:42.541Z,15.50
2018-03-21T08:40:08.952Z,14.02
2018-03-21T08:42:36.018Z,15.05
2018-03-21T08:45:09.749Z,15.85
2018-03-21T08:47:36.875Z,15.15
2018-03-21T08:50:03.243Z,15.45
2018-03-21T08:52:29.586Z,16.02
2018-03-21T08:54:56.012Z,13.80
2018-03-21T08:57:22.424Z,14.40
2018-03-21T08:59:53.330Z,15.80
2018-03-21T09:02:19.795Z,17.67
2018-03-21T09:04:46.170Z,17.87
2018-03-21T09:07:12.611Z,15.77
2018-03-21T09:09:39.110Z,16.62
2018-03-21T09:12:05.489Z,19.98
2018-03-21T09:14:31.873Z,23.42
2018-03-21T09:17:01.763Z,22.10
2018-03-21T09:19:28.898Z,23.95
2018-03-21T09:21:55.290Z,23.77
2018-03-21T09:24:21.704Z,24.55
2018-03-21T09:26:48.066Z,23.87
2018-03-21T09:29:14.462Z,26.23
2018-03-21T09:31:45.813Z,26.77
2018-03-21T09:34:12.185Z,25.12
2018-03-21T09:36:38.625Z,25.92
2018-03-21T09:39:05.886Z,27.87
2018-03-21T09:41:32.285Z,26.65
2018-03-21T09:43:58.722Z,27.87
2018-03-21T09:46:25.261Z,28.73
2018-03-21T09:48:55.302Z,28.05
2018-03-21T09:51:22.732Z,28.38
2018-03-21T09:53:49.149Z,26.60
2018-03-21T09:56:15.545Z,26.27
2018-03-21T09:58:41.828Z,23.27
2018-03-21T10:01:09.050Z,19.75
2018-03-21T10:03:35.394Z,22.80
2018-03-21T10:06:03.788Z,20.40
2018-03-21T10:08:30.168Z,24.63
2018-03-21T10:10:56.521Z,21.80
2018-03-21T10:13:22.857Z,19.23
2018-03-21T10:15:49.242Z,18.73
2018-03-21T10:18:15.602Z,19.90
2018-03-21T10:20:42.078Z,19.08
2018-03-21T10:23:15.830Z,20.85
2018-03-21T10:25:42.242Z,20.20
2018-03-21T10:28:08.669Z,19.08
2018-03-21T10:30:35.124Z,21.45
2018-03-21T10:33:01.629Z,17.30
2018-03-21T10:35:28.064Z,16.73
2018-03-21T10:37:57.451Z,16.23
2018-03-21T10:40:24.657Z,16.10
2018-03-21T10:42:51.023Z,17.85
2018-03-21T10:45:17.218Z,18.33
2018-03-21T10:47:44.345Z,18.50
2018-03-21T10:50:10.589Z,17.85
2018-03-21T10:52:39.036Z,17.45
2018-03-21T10:57:34.360Z,20.90
2018-03-21T11:00:01.291Z,18.77
2018-03-21T11:02:43.640Z,18.35
2018-03-21T11:05:12.280Z,19.33
2018-03-21T11:07:38.921Z,20.52
2018-03-21T11:10:05.454Z,19.62
2018-03-21T11:12:32.415Z,18.60
2018-03-21T11:14:58.577Z,18.75
2018-03-21T11:17:25.531Z,19.37
2018-03-21T11:19:52.436Z,16.85
2018-03-21T11:22:18.610Z,17.85
2018-03-21T11:24:46.169Z,18.25
2018-03-21T11:27:13.130Z,19.70
2018-03-21T11:29:39.478Z,21.15
2018-03-21T11:32:06.461Z,20.75
2018-03-21T11:34:32.722Z,20.50
2018-03-21T11:36:59.657Z,20.65
2018-03-21T11:39:25.882Z,20.80
2018-03-21T11:41:52.304Z,21.60
2018-03-21T11:44:21.977Z,23.17
2018-03-21T11:46:49.246Z,25.05
2018-03-21T11:49:15.450Z,28.75
2018-03-21T11:51:41.709Z,25.27
2018-03-21T11:54:08.849Z,25.73
2018-03-21T11:56:35.069Z,23.77
2018-03-21T11:59:03.512Z,25.45
2018-03-21T12:01:32.290Z,26.08
2018-03-21T12:03:58.560Z,24.52
2018-03-21T12:06:25.043Z,24.98
2018-03-21T12:08:51.439Z,20.08
2018-03-21T12:11:17.655Z,21.08
2018-03-21T12:13:44.717Z,20.75
2018-03-21T12:16:18.230Z,21.42
2018-03-21T12:18:45.263Z,21.77
2018-03-21T12:21:11.497Z,24.25
2018-03-21T12:23:38.422Z,24.67
2018-03-21T12:26:04.633Z,25.60
2018-03-21T12:28:30.846Z,24.83
2018-03-21T12:31:01.854Z,25.52
2018-03-21T12:33:29.006Z,23.48
2018-03-21T12:35:56.034Z,23.80
2018-03-21T12:38:22.255Z,21.83
2018-03-21T12:40:48.508Z,25.12
2018-03-21T12:43:14.694Z,22.08
2018-03-21T12:45:40.915Z,20.08
2018-03-21T12:48:12.166Z,20.60
2018-03-21T12:50:39.213Z,20.58
2018-03-21T12:53:05.572Z,19.98
2018-03-21T12:55:31.810Z,21.02
2018-03-21T12:57:58.203Z,20.40
2018-03-21T13:00:24.430Z,22.00
2018-03-21T13:02:51.405Z,22.70
2018-03-21T13:05:35.848Z,22.65
2018-03-21T13:08:02.115Z,20.77
2018-03-21T13:10:28.349Z,20.12
2018-03-21T13:12:54.537Z,20.95
2018-03-21T13:15:24.216Z,22.52
2018-03-21T13:17:51.386Z,21.70
2018-03-21T13:20:18.321Z,23.30
2018-03-21T13:22:45.351Z,22.55
2018-03-21T13:25:11.666Z,23.48
2018-03-21T13:27:37.879Z,23.15
2018-03-21T13:30:10.221Z,23.40
2018-03-21T13:32:36.646Z,22.02
2018-03-21T13:35:03.116Z,24.77
2018-03-21T13:37:30.802Z,19.92
2018-03-21T13:39:57.245Z,20.90
2018-03-21T13:42:23.875Z,21.20
2018-03-21T13:47:27.679Z,20.90
2018-03-21T13:49:55.006Z,19.08
2018-03-21T13:52:22.281Z,22.20
2018-03-21T13:54:48.712Z,20.98
2018-03-21T13:59:47.286Z,21.95
2018-03-21T14:02:13.781Z,21.30
2018-03-21T14:04:40.243Z,19.87
2018-03-21T14:07:07.415Z,19.83
2018-03-21T14:09:33.827Z,20.77
2018-03-21T14:12:01.042Z,19.08
2018-03-21T14:14:27.641Z,19.15
2018-03-21T14:16:56.371Z,18.35
2018-03-21T14:19:24.042Z,19.67
2018-03-21T14:21:51.144Z,19.60
2018-03-21T14:24:17.575Z,17.10
2018-03-21T14:26:44.720Z,19.02
2018-03-21T14:29:11.097Z,19.00
2018-03-21T14:31:37.577Z,18.65
2018-03-21T14:34:09.136Z,18.30
2018-03-21T14:36:35.740Z,18.70
2018-03-21T14:39:04.905Z,19.45
2018-03-21T14:41:34.751Z,18.00
2018-03-21T14:44:01.364Z,17.42
2018-03-21T14:46:35.683Z,17.12
2018-03-21T14:49:02.161Z,18.23
2018-03-21T14:51:30.914Z,18.30
2018-03-21T14:53:59.747Z,17.48
2018-03-21T14:56:26.312Z,18.10
2018-03-21T14:58:53.343Z,19.75
2018-03-21T15:01:19.974Z,18.27
2018-03-21T15:03:46.550Z,18.80
2018-03-21T15:06:13.825Z,17.45
2018-03-21T15:08:43.223Z,17.85
2018-03-21T15:11:09.718Z,17.75
2018-03-21T15:13:36.291Z,20.00
2018-03-21T15:16:03.544Z,19.67
2018-03-21T15:18:30.177Z,20.12
2018-03-21T15:20:56.610Z,19.45
2018-03-21T15:23:23.010Z,20.35
2018-03-21T15:25:49.509Z,18.55
2018-03-21T15:28:15.996Z,19.05
2018-03-21T15:30:46.597Z,17.92
2018-03-21T15:33:13.047Z,17.30
2018-03-21T15:35:40.212Z,19.80
2018-03-21T15:38:06.600Z,19.27
2018-03-21T15:40:33.027Z,19.40
2018-03-21T15:43:00.162Z,19.60
2018-03-21T15:48:00.223Z,20.15
2018-03-21T15:50:26.833Z,19.33
2018-03-21T15:52:53.262Z,21.65
2018-03-21T15:55:19.646Z,20.73
2018-03-21T15:57:46.060Z,20.52
2018-03-21T16:00:18.236Z,21.90
2018-03-21T16:02:44.692Z,20.33
2018-03-21T16:05:11.117Z,20.62
2018-03-21T16:07:37.492Z,22.40
2018-03-21T16:10:03.915Z,22.58
2018-03-21T16:12:30.380Z,23.25
2018-03-21T16:15:02.867Z,24.33
2018-03-21T16:17:29.311Z,23.33
2018-03-21T16:19:55.796Z,22.48
2018-03-21T16:22:22.217Z,24.58
2018-03-21T16:24:48.655Z,23.70
2018-03-21T16:27:15.164Z,23.48
2018-03-21T16:29:41.637Z,23.48
2018-03-21T16:32:13.733Z,23.45
2018-03-21T16:34:40.254Z,22.00
2018-03-21T16:37:06.697Z,22.50
2018-03-21T16:39:33.893Z,19.65
2018-03-21T16:42:00.329Z,21.87
2018-03-21T16:44:27.518Z,20.23
2018-03-21T16:46:54.199Z,20.40
2018-03-21T16:51:58.240Z,20.58
2018-03-21T16:54:25.832Z,21.85
2018-03-21T16:56:52.388Z,19.58
2018-03-21T16:59:18.866Z,20.60
2018-03-21T17:01:50.484Z,22.50
2018-03-21T17:04:17.007Z,21.08
2018-03-21T17:06:43.439Z,20.35
2018-03-21T17:09:09.719Z,21.95
2018-03-21T17:11:37.008Z,21.05
2018-03-21T17:14:03.356Z,22.25
2018-03-21T17:16:35.191Z,21.67
2018-03-21T17:19:01.419Z,20.67
2018-03-21T17:21:27.612Z,19.90
2018-03-21T17:23:53.911Z,19.45
2018-03-21T17:26:20.239Z,17.92
2018-03-21T17:28:46.522Z,17.30
2018-03-21T17:31:12.935Z,17.30
2018-03-21T17:33:42.877Z,17.85
2018-03-21T17:36:10.004Z,18.95
2018-03-21T17:38:36.435Z,17.50
2018-03-21T17:41:02.850Z,17.70
2018-03-21T17:43:29.954Z,17.50
2018-03-21T17:45:56.302Z,18.65
2018-03-21T17:48:22.731Z,16.77
2018-03-21T17:50:55.833Z,18.25
2018-03-21T17:53:23.308Z,20.58
2018-03-21T17:55:50.688Z,19.92
2018-03-21T17:58:17.042Z,18.85
2018-03-21T18:00:43.332Z,17.40
2018-03-21T18:03:09.664Z,17.55
2018-03-21T18:05:38.595Z,20.02
2018-03-21T18:08:04.886Z,17.08
2018-03-21T18:10:31.883Z,16.08
2018-03-21T18:12:58.137Z,17.42
2018-03-21T18:15:24.414Z,17.25
2018-03-21T18:17:50.873Z,14.60
2018-03-21T18:20:17.919Z,13.82
2018-03-21T18:22:50.248Z,15.35
2018-03-21T18:25:16.950Z,15.55
2018-03-21T18:27:43.294Z,14.13
2018-03-21T18:30:09.643Z,13.80
2018-03-21T18:32:36.693Z,13.70
2018-03-21T18:35:02.998Z,12.57
2018-03-21T18:37:29.280Z,12.10
2018-03-21T18:39:55.486Z,12.65
2018-03-21T18:42:21.774Z,12.37
2018-03-21T18:44:48.064Z,11.52
2018-03-21T18:47:14.388Z,12.40
2018-03-21T18:49:40.885Z,11.35
2018-03-21T18:52:08.148Z,13.10
2018-03-21T18:54:34.490Z,11.77
2018-03-21T18:57:00.950Z,13.20
2018-03-21T18:59:27.230Z,12.15
2018-03-21T19:01:53.554Z,12.65
2018-03-21T19:04:19.962Z,12.27
2018-03-21T19:06:53.466Z,11.10
2018-03-21T19:09:20.490Z,11.63
2018-03-21T19:11:46.708Z,10.70
2018-03-21T19:14:13.263Z,10.32
2018-03-21T19:16:39.526Z,10.27
2018-03-21T19:19:05.728Z,10.27
2018-03-21T19:21:32.688Z,10.70
2018-03-21T19:23:59.002Z,10.60
2018-03-21T19:26:25.994Z,10.00
2018-03-21T19:28:52.926Z,10.02
2018-03-21T19:31:19.182Z,9.40
2018-03-21T19:33:46.721Z,11.82
2018-03-21T19:36:17.824Z,10.93
2018-03-21T19:38:45.610Z,8.98
2018-03-21T19:41:13.642Z,10.25
2018-03-21T19:43:40.437Z,10.43
2018-03-21T19:46:07.629Z,9.38
2018-03-21T19:48:34.066Z,10.02
2018-03-21T19:51:00.480Z,10.80
2018-03-21T19:53:26.853Z,10.88
2018-03-21T19:55:54.349Z,10.30
2018-03-21T19:58:24.256Z,11.12
2018-03-21T20:00:51.229Z,11.80
2018-03-21T20:03:17.564Z,11.27
2018-03-21T20:05:44.813Z,10.77
2018-03-21T20:08:11.271Z,11.38
2018-03-21T20:10:38.395Z,11.25
2018-03-21T20:13:04.629Z,10.07
2018-03-21T20:15:34.324Z,11.45
2018-03-21T20:18:01.091Z,9.57
2018-03-21T20:20:27.647Z,9.40
2018-03-21T20:22:54.843Z,9.93
2018-03-21T20:25:21.291Z,10.38
2018-03-21T20:27:47.843Z,9.70
2018-03-21T20:30:15.106Z,10.20
2018-03-21T20:32:44.761Z,10.32
2018-03-21T20:35:11.056Z,11.95
2018-03-21T20:37:37.353Z,11.25
2018-03-21T20:40:03.562Z,11.15
2018-03-21T20:42:29.812Z,11.05
2018-03-21T20:44:56.829Z,9.70
2018-03-21T20:47:23.165Z,10.32
2018-03-21T20:49:49.377Z,10.18
2018-03-21T20:52:15.669Z,9.63
2018-03-21T20:54:42.776Z,11.23
2018-03-21T20:57:09.223Z,10.52
2018-03-21T20:59:35.500Z,11.50
2018-03-21T21:02:01.932Z,10.88
2018-03-21T21:04:28.142Z,11.45
2018-03-21T21:06:54.411Z,11.07
2018-03-21T21:09:20.785Z,11.73
2018-03-21T21:11:47.130Z,11.27
2018-03-21T21:14:14.415Z,12.35
2018-03-21T21:16:40.760Z,13.60
2018-03-21T21:19:07.720Z,12.00
2018-03-21T21:21:33.986Z,11.25
2018-03-21T21:24:00.211Z,12.15
2018-03-21T21:26:26.423Z,11.68
2018-03-21T21:28:52.876Z,12.18
2018-03-21T21:31:19.175Z,12.25
2018-03-21T21:33:45.842Z,12.07
2018-03-21T21:36:12.231Z,11.20
2018-03-21T21:38:39.357Z,11.85
2018-03-21T21:41:05.665Z,13.00
2018-03-21T21:43:31.857Z,12.25
2018-03-21T21:45:58.015Z,12.85
2018-03-21T21:48:24.226Z,12.73
2018-03-21T21:50:51.133Z,12.32
2018-03-21T21:53:17.302Z,13.40
2018-03-21T21:55:44.474Z,11.88
2018-03-21T21:58:10.722Z,12.60
2018-03-21T22:00:37.758Z,11.68
2018-03-21T22:03:03.926Z,11.73
2018-03-21T22:05:30.218Z,11.75
2018-03-21T22:07:56.425Z,11.27
2018-03-21T22:10:22.653Z,11.73
2018-03-21T22:12:49.614Z,12.63
2018-03-21T22:15:15.945Z,12.23
2018-03-21T22:17:42.133Z,12.60
2018-03-21T22:20:08.346Z,13.10
2018-03-21T22:22:34.575Z,13.13
2018-03-21T22:25:01.289Z,13.18
2018-03-21T22:27:27.508Z,14.38
2018-03-21T22:29:53.726Z,12.95
2018-03-21T22:32:20.670Z,14.00
2018-03-21T22:34:46.886Z,13.90
2018-03-21T22:37:13.227Z,13.65
2018-03-21T22:39:39.444Z,14.63
2018-03-21T22:42:05.729Z,13.25
2018-03-21T22:44:32.003Z,14.05
2018-03-21T22:46:58.246Z,12.65
2018-03-21T22:49:24.423Z,13.90
2018-03-21T22:51:50.667Z,13.90
2018-03-21T22:54:16.893Z,14.20
2018-03-21T22:56:43.105Z,13.62
2018-03-21T22:59:09.771Z,15.73
2018-03-21T23:01:36.010Z,14.57
2018-03-21T23:04:02.277Z,15.07
2018-03-21T23:06:28.505Z,14.05
2018-03-21T23:08:54.758Z,15.38
2018-03-21T23:11:21.009Z,14.63
2018-03-21T23:13:47.191Z,14.98
2018-03-21T23:16:14.210Z,14.60
2018-03-21T23:18:40.468Z,14.40
2018-03-21T23:21:06.767Z,15.88
2018-03-21T23:23:32.995Z,14.80
2018-03-21T23:25:59.302Z,14.95
2018-03-21T23:28:25.922Z,14.63
2018-03-21T23:30:52.827Z,15.77
2018-03-21T23:33:19.152Z,14.07
2018-03-21T23:35:46.932Z,15.02
2018-03-21T23:38:13.364Z,15.00
2018-03-21T23:40:40.466Z,15.50
2018-03-21T23:43:07.717Z,15.00
2018-03-21T23:45:34.019Z,16.35
2018-03-21T23:48:00.316Z,15.50
2018-03-21T23:50:26.662Z,16.08
2018-03-21T23:52:54.093Z,17.08
2018-03-21T23:55:21.146Z,18.42
2018-03-21T23:57:48.159Z,16.33
